KNFW

Fort Worth NAS JRB (Carswell Field) Airport

Fort Worth, Texas, USA
METAR KNFW 132352Z 35013KT 10SM -RA OVC015 08/05 A2977 RMK AO2 RAB38 SLP066 P0003 60003 T00830050 10178 20083 51032 VISNO N $
Observed Flight Rules
Dec-13 @ 23:52 UTC (54 minutes ago) Marginal Visual Flight Rules
Wind Visibility Clouds Conditions
350° at 13 knots 10 miles
  • Overcast at 1,500' AGL
  • Light Rain
Temperatures Readings Precipitation
Current 8°C / 46°F
Dewpoint 5°C / 41°F
Humidity 82%
Altimeter 29.77" Hg
Pressure 1006.6 hPa
Elevation 198
Current Rain 0.03
METAR KNFW 132352Z 35013KT 10SM -RA OVC015 08/05 A2977 RMK AO2 RAB38 SLP066 P0003 60003 T00830050 10178 20083 51032 VISNO N $
Observed Flight Rules
Dec-13 @ 23:52 UTC
(54 minutes ago)
MVFR
Wind Visibility
350° at 13 knots 10 miles
Clouds
  • Overcast at 1,500' AGL
Conditions
  • Light Rain
Temperature Dewpoint
8°C / 46°F 5°C / 41°F
Humidity Altimeter Pressure
82% 29.77" Hg 1006.6 hPa
Current Rain
0.03